OINN  Noshahr  Airport

Iran

Add Bookmark
ICAO OINN
IATA NSH
Type Airport
Status Operational
Latitude
36° 39' 47" N
36.663300
Longitude
51° 27' 52" E
51.464699
Local (GMT +3.5 ) UTC
Dec 6, 2016 04:15 am Dec 6, 2016 00:45
Sunrise-Sunset Local UTC
Begin Civil Twilight 06:32 am 03:02
Sunrise 07:01 am 03:31
Sunset 04:49 pm 13:19
End Civil Twilight 05:18 pm 13:48
VFR
VFR
MVFR
MVFR
IFR
IFR
LIFR
LIFR
Unknown
No Data

Current Weather

METAR Observed MVFR
OINN 060000Z 18004KT 9999 BKN024 OVC080 10/09 Q1020 Tue, Dec 6, 2016 @ 00:00 UTC
(45 Minutes ago)
Marginal Visual Flight Rules
Wind Visibility Clouds Conditions
180° at 4 knots (7 kph) 10 km or more
  • Broken at 2,400 ft AGL
  • Overcast at 8,000 ft AGL
  • No significant weather
Temperatures Readings Precipitation
Current Temp
10°C
50°F
Dewpoint
9°C
48°F
Humidity 94%
Altimeter 30.12" Hg
Sea Level Pressure 1,020 mb
None Recorded

Additional weather within a 92.6km radius of OINN

Map ICAO Location
OINR 75km W/NW (292°)
VFR
VFR
MVFR
MVFR
IFR
IFR
LIFR
LIFR
Unknown
No Data
-
-

CheckWX.com is intended as a tool to help pilots better visualize weather data. It is not intended as a substitute for an official weather briefing obtained from a Flight Service Station. CheckWX.com does not meet the FAA requirements for an official pre-flight weather briefing. Therefore, it's important that pilots still call and obtain an official FSS pre-flight weather briefing.

© 2007-2016 CheckWX.com
00:45:21 UTC